Time;durP1;ratioP1;P1;durP2;ratioP2;P2;SDS_P1;SDS_P2;PMS_P1;PMS_P2;Temp;Humidity;BMP_temperature;BMP_pressure;BME280_temperature;BME280_humidity;BME280_pressure;Samples;Min_cycle;Max_cycle;Signal;HPM_P1;HPM_P2
2021/01/03 00:00:15;;;;;;;51.27;23.43;;;3.60;99.90;;;;;;5076694;28;20177;-65
2021/01/03 00:02:41;;;;;;;61.33;25.70;;;3.60;99.90;;;;;;5072673;28;20173;-65
2021/01/03 00:05:07;;;;;;;51.13;23.70;;;3.60;99.90;;;;;;5087292;28;20318;-66
2021/01/03 00:07:32;;;;;;;53.47;23.83;;;3.70;99.90;;;;;;5091960;28;20166;-66
2021/01/03 00:09:58;;;;;;;47.43;21.70;;;3.70;99.90;;;;;;5073495;28;20174;-66
2021/01/03 00:12:23;;;;;;;54.93;24.30;;;3.70;99.90;;;;;;5072339;28;20202;-66
2021/01/03 00:14:49;;;;;;;56.30;24.20;;;3.70;99.90;;;;;;5089018;28;20173;-65
2021/01/03 00:17:15;;;;;;;47.90;23.23;;;3.70;99.90;;;;;;5092539;28;20176;-65
2021/01/03 00:19:40;;;;;;;46.93;22.33;;;3.70;99.90;;;;;;5077044;28;20194;-66
2021/01/03 00:22:06;;;;;;;49.47;24.13;;;3.60;99.90;;;;;;5071790;28;20643;-66
2021/01/03 00:24:31;;;;;;;54.90;23.17;;;3.60;99.90;;;;;;5085186;28;20269;-66
2021/01/03 00:26:57;;;;;;;51.37;25.00;;;3.60;99.90;;;;;;5092448;28;20174;-66
2021/01/03 00:29:22;;;;;;;50.07;23.63;;;3.60;99.90;;;;;;5080377;28;20231;-66
2021/01/03 00:31:50;;;;;;;59.27;24.90;;;3.60;99.90;;;;;;5071666;28;20202;-66
2021/01/03 00:34:18;;;;;;;47.70;24.80;;;3.60;99.90;;;;;;5081563;28;20619;-65
2021/01/03 00:36:44;;;;;;;50.57;25.17;;;3.50;99.90;;;;;;5084524;28;20170;-65
2021/01/03 00:39:10;;;;;;;48.63;24.17;;;3.50;99.90;;;;;;5071834;28;20267;-66
2021/01/03 00:41:36;;;;;;;50.20;23.20;;;3.60;99.90;;;;;;5075896;28;20272;-66
2021/01/03 00:44:03;;;;;;;52.93;25.33;;;3.60;99.90;;;;;;5092182;28;20170;-66
2021/01/03 00:46:28;;;;;;;49.67;25.37;;;3.60;99.90;;;;;;5087599;28;20177;-65
2021/01/03 00:48:54;;;;;;;51.40;25.07;;;3.60;99.90;;;;;;5071874;28;20682;-65
2021/01/03 00:51:19;;;;;;;46.67;24.40;;;3.60;99.90;;;;;;5073668;28;20260;-66
2021/01/03 00:53:45;;;;;;;53.77;24.03;;;3.60;99.90;;;;;;5091972;28;20166;-65
2021/01/03 00:56:11;;;;;;;50.33;25.27;;;3.60;99.90;;;;;;5090896;28;20173;-66
2021/01/03 00:58:36;;;;;;;54.67;25.83;;;3.70;99.90;;;;;;5071648;28;20248;-65
2021/01/03 01:01:02;;;;;;;58.53;26.13;;;3.60;99.90;;;;;;5071381;28;20176;-66
2021/01/03 01:03:28;;;;;;;43.07;24.87;;;3.60;99.90;;;;;;5090568;28;20181;-66
2021/01/03 01:05:55;;;;;;;48.33;24.87;;;3.70;99.90;;;;;;5078689;28;20753;-66
2021/01/03 01:08:22;;;;;;;49.93;25.60;;;3.70;99.90;;;;;;5070598;28;20194;-65
2021/01/03 01:10:48;;;;;;;52.70;24.87;;;3.60;99.90;;;;;;5086288;28;20183;-65
2021/01/03 01:13:13;;;;;;;51.80;26.40;;;3.60;99.90;;;;;;5091573;28;20204;-66
2021/01/03 01:15:39;;;;;;;48.03;25.77;;;3.60;99.90;;;;;;5078087;28;20177;-65
2021/01/03 01:18:05;;;;;;;51.87;26.07;;;3.60;99.90;;;;;;5071306;28;20194;-66
2021/01/03 01:20:32;;;;;;;52.43;25.83;;;3.70;99.90;;;;;;5082739;28;20231;-66
2021/01/03 01:22:58;;;;;;;48.97;25.70;;;3.70;99.90;;;;;;5091916;28;20222;-66
2021/01/03 01:25:26;;;;;;;50.27;26.77;;;3.70;99.90;;;;;;5081127;28;20582;-66
2021/01/03 01:27:53;;;;;;;50.50;24.47;;;3.80;99.90;;;;;;5073857;28;20272;-66
2021/01/03 01:30:19;;;;;;;48.03;25.17;;;3.80;99.90;;;;;;5091186;28;20172;-66
2021/01/03 01:32:45;;;;;;;51.73;23.90;;;3.80;99.90;;;;;;5084781;28;20260;-66
2021/01/03 01:35:17;;;;;;;44.63;24.43;;;3.80;99.90;;;;;;5071460;28;20860;-66
2021/01/03 01:37:42;;;;;;;45.33;22.63;;;3.70;99.90;;;;;;5076468;28;20544;-66
2021/01/03 01:40:11;;;;;;;51.20;25.30;;;3.80;99.90;;;;;;5091215;28;20169;-65
2021/01/03 01:42:37;;;;;;;54.80;24.93;;;3.80;99.90;;;;;;5087135;28;20181;-65
2021/01/03 01:45:15;;;;;;;48.80;25.37;;;3.80;99.90;;;;;;5071735;28;20251;-66
2021/01/03 01:47:45;;;;;;;43.03;25.47;;;3.80;99.90;;;;;;5080218;28;20201;-66
2021/01/03 01:50:17;;;;;;;54.70;24.90;;;3.80;99.90;;;;;;5091059;28;20176;-66
2021/01/03 01:52:47;;;;;;;44.13;23.73;;;3.80;99.90;;;;;;5081926;28;20729;-66
2021/01/03 01:55:21;;;;;;;44.27;24.67;;;3.80;99.90;;;;;;5071081;28;20571;-66
2021/01/03 01:58:00;;;;;;;50.20;24.93;;;3.80;99.90;;;;;;5079946;28;20193;-66
2021/01/03 02:00:30;;;;;;;42.53;22.63;;;3.80;99.90;;;;;;5087576;28;20726;-65
2021/01/03 02:03:29;;;;;;;52.80;26.50;;;3.80;99.90;;;;;;5071083;28;20249;-66
2021/01/03 02:06:00;;;;;;;48.60;25.73;;;3.70;99.90;;;;;;5077500;28;20173;-66
2021/01/03 02:08:34;;;;;;;42.67;23.33;;;3.70;99.90;;;;;;5091370;28;20201;-66
2021/01/03 02:11:01;;;;;;;46.03;24.30;;;3.70;99.90;;;;;;5070713;28;20178;-66
2021/01/03 02:13:26;;;;;;;47.17;24.37;;;3.60;99.90;;;;;;5070917;28;20210;-66
2021/01/03 02:15:55;;;;;;;53.97;24.17;;;3.60;99.90;;;;;;5089914;28;20177;-66
2021/01/03 02:18:21;;;;;;;56.53;24.87;;;3.60;99.90;;;;;;5090975;28;20224;-65
2021/01/03 02:21:18;;;;;;;45.80;24.30;;;3.70;99.90;;;;;;5072928;28;20263;-65
2021/01/03 02:23:53;;;;;;;50.00;26.67;;;3.70;99.90;;;;;;5070620;28;20166;-65
2021/01/03 02:26:26;;;;;;;54.00;25.90;;;3.70;99.90;;;;;;5091157;28;20237;-66
2021/01/03 02:28:53;;;;;;;46.87;26.20;;;3.70;99.90;;;;;;5089288;28;20201;-65
2021/01/03 02:31:27;;;;;;;43.07;23.83;;;3.70;99.90;;;;;;5083466;28;20176;-66
2021/01/03 02:33:53;;;;;;;43.93;23.77;;;3.70;99.90;;;;;;5081883;28;20727;-65
2021/01/03 02:36:27;;;;;;;48.00;24.67;;;3.80;99.90;;;;;;5094575;28;20767;-66
2021/01/03 02:39:07;;;;;;;52.37;25.57;;;3.80;99.90;;;;;;5087254;28;20202;-66
2021/01/03 02:41:33;;;;;;;51.07;25.90;;;3.80;99.90;;;;;;5073977;28;20260;-66
2021/01/03 02:43:59;;;;;;;50.13;24.80;;;3.80;99.90;;;;;;5081485;28;20248;-66
2021/01/03 02:46:25;;;;;;;45.63;23.63;;;3.70;99.90;;;;;;5094559;28;20509;-66
2021/01/03 02:48:51;;;;;;;48.10;25.50;;;3.70;99.90;;;;;;5088146;28;20284;-66
2021/01/03 02:51:17;;;;;;;49.07;25.33;;;3.70;99.90;;;;;;5073788;28;20170;-66
2021/01/03 02:53:43;;;;;;;51.27;24.50;;;3.70;99.90;;;;;;5077916;28;20266;-66
2021/01/03 02:56:08;;;;;;;47.20;26.60;;;3.70;99.90;;;;;;5094216;28;20636;-67
2021/01/03 02:58:34;;;;;;;45.00;24.83;;;3.70;99.90;;;;;;5090822;28;20671;-66
2021/01/03 03:01:00;;;;;;;46.87;24.53;;;3.60;99.90;;;;;;5073616;28;20170;-66
2021/01/03 03:03:26;;;;;;;52.00;25.10;;;3.60;99.90;;;;;;5074980;28;20227;-66
2021/01/03 03:05:51;;;;;;;47.07;25.53;;;3.70;99.90;;;;;;5093964;28;20173;-67
2021/01/03 03:08:17;;;;;;;53.13;24.63;;;3.60;99.90;;;;;;5092841;28;20216;-66
2021/01/03 03:10:42;;;;;;;45.80;24.63;;;3.70;99.90;;;;;;5073984;28;20185;-66
2021/01/03 03:13:08;;;;;;;44.03;24.43;;;3.60;99.90;;;;;;5074097;28;20287;-66
2021/01/03 03:15:34;;;;;;;49.53;25.80;;;3.60;99.90;;;;;;5091578;28;20187;-66
2021/01/03 03:18:02;;;;;;;49.60;24.60;;;3.60;99.90;;;;;;5093976;28;20181;-63
2021/01/03 03:20:28;;;;;;;50.20;25.90;;;3.60;99.90;;;;;;5078102;28;20178;-65
2021/01/03 03:22:53;;;;;;;46.80;25.53;;;3.60;99.90;;;;;;5074161;28;20177;-65
2021/01/03 03:25:21;;;;;;;45.23;25.00;;;3.50;99.90;;;;;;5088086;28;20181;-65
2021/01/03 03:27:47;;;;;;;42.10;25.57;;;3.50;99.90;;;;;;5092962;28;20247;-65
2021/01/03 03:30:17;;;;;;;46.07;23.97;;;3.50;99.90;;;;;;5093213;28;20653;-65
2021/01/03 03:32:43;;;;;;;45.40;23.43;;;3.50;99.90;;;;;;5081855;28;20202;-65
2021/01/03 03:35:10;;;;;;;44.67;22.73;;;3.50;99.90;;;;;;5073222;28;20162;-64
2021/01/03 03:37:37;;;;;;;44.80;23.20;;;3.50;99.90;;;;;;5072774;28;20170;-65
2021/01/03 03:40:03;;;;;;;44.27;23.07;;;3.60;99.90;;;;;;5072791;28;20592;-64
2021/01/03 03:42:32;;;;;;;40.93;21.87;;;3.60;99.90;;;;;;5080127;28;20193;-65
2021/01/03 03:44:58;;;;;;;42.10;23.47;;;3.60;99.90;;;;;;5092283;28;20177;-65
2021/01/03 03:47:27;;;;;;;44.57;23.07;;;3.60;99.90;;;;;;5076858;28;20593;-65
2021/01/03 03:49:53;;;;;;;40.80;22.30;;;3.60;99.90;;;;;;5072739;28;20202;-64
2021/01/03 03:52:19;;;;;;;43.20;24.13;;;3.60;99.90;;;;;;5087260;28;20219;-65
2021/01/03 03:54:44;;;;;;;45.93;23.97;;;3.60;99.90;;;;;;5089672;28;20170;-65
2021/01/03 03:57:10;;;;;;;46.33;24.90;;;3.60;99.90;;;;;;5072754;28;20166;-65
2021/01/03 03:59:38;;;;;;;43.10;24.40;;;3.60;99.90;;;;;;5073738;28;20659;-64
2021/01/03 04:02:04;;;;;;;44.70;24.57;;;3.60;99.90;;;;;;5092602;28;20323;-65
2021/01/03 04:04:29;;;;;;;48.37;23.73;;;3.70;99.90;;;;;;5092866;28;20719;-65
2021/01/03 04:06:55;;;;;;;48.50;25.03;;;3.70;99.90;;;;;;5072572;28;20227;-65
2021/01/03 04:09:20;;;;;;;46.23;24.33;;;3.60;99.90;;;;;;5071792;28;20753;-65
2021/01/03 04:11:52;;;;;;;44.80;24.57;;;3.60;99.90;;;;;;5090887;28;20227;-66
2021/01/03 04:14:21;;;;;;;43.60;23.97;;;3.60;99.90;;;;;;5092622;28;20177;-65
2021/01/03 04:16:54;;;;;;;48.57;24.33;;;3.60;99.90;;;;;;5074249;28;20647;-65
2021/01/03 04:19:20;;;;;;;45.83;22.60;;;3.50;99.90;;;;;;5072389;28;20267;-65
2021/01/03 04:21:58;;;;;;;46.90;24.80;;;3.50;99.90;;;;;;5089140;28;20665;-65
2021/01/03 04:24:24;;;;;;;46.17;23.80;;;3.50;99.90;;;;;;5076020;28;20535;-66
2021/01/03 04:26:52;;;;;;;44.37;23.53;;;3.50;99.90;;;;;;5072337;28;20174;-65
2021/01/03 04:29:18;;;;;;;46.40;24.30;;;3.50;99.90;;;;;;5087003;28;20200;-65
2021/01/03 04:31:44;;;;;;;42.67;23.90;;;3.50;99.90;;;;;;5091911;28;20173;-65
2021/01/03 04:34:10;;;;;;;45.77;24.57;;;3.50;99.90;;;;;;5078758;28;20186;-65
2021/01/03 04:36:35;;;;;;;49.87;24.40;;;3.50;99.90;;;;;;5072250;28;20170;-65
2021/01/03 04:39:01;;;;;;;47.80;23.80;;;3.40;99.90;;;;;;5072448;28;20693;-65
2021/01/03 04:41:34;;;;;;;43.30;25.00;;;3.40;99.90;;;;;;5072057;28;20169;-65
2021/01/03 04:44:03;;;;;;;42.97;24.20;;;3.40;99.90;;;;;;5083285;28;20227;-64
2021/01/03 04:46:35;;;;;;;42.13;22.00;;;3.40;99.90;;;;;;5093606;28;20218;-63
2021/01/03 04:49:05;;;;;;;44.37;23.60;;;3.40;99.90;;;;;;5082667;22;20277;-65
2021/01/03 04:51:37;;;;;;;40.93;23.40;;;3.40;99.90;;;;;;5031443;28;20176;-66
2021/01/03 04:54:12;;;;;;;42.73;25.20;;;3.50;99.90;;;;;;5031606;28;20174;-65
2021/01/03 04:56:41;;;;;;;41.43;22.83;;;3.50;99.90;;;;;;5031741;28;20544;-65
2021/01/03 04:59:12;;;;;;;45.73;24.27;;;3.50;99.90;;;;;;5031619;28;20187;-65
2021/01/03 05:01:38;;;;;;;39.80;21.73;;;3.50;99.90;;;;;;5031314;28;20179;-65
2021/01/03 05:04:18;;;;;;;40.73;22.97;;;3.50;99.90;;;;;;5031684;28;20175;-67
2021/01/03 05:06:50;;;;;;;43.33;22.67;;;3.40;99.90;;;;;;5031526;28;20258;-65
2021/01/03 05:09:16;;;;;;;41.90;21.57;;;3.40;99.90;;;;;;5031498;28;20183;-65
2021/01/03 05:12:15;;;;;;;40.40;21.67;;;3.50;99.90;;;;;;5031018;28;20183;-64
2021/01/03 05:14:57;;;;;;;35.97;20.83;;;3.50;99.90;;;;;;5031583;28;20183;-64
2021/01/03 05:17:23;;;;;;;41.30;22.63;;;3.50;99.90;;;;;;5031771;28;20175;-66
2021/01/03 05:19:48;;;;;;;43.17;21.13;;;3.50;99.90;;;;;;5031160;28;20269;-65
2021/01/03 05:22:26;;;;;;;40.07;21.40;;;3.50;99.90;;;;;;5031698;28;20183;-65
2021/01/03 05:24:51;;;;;;;41.13;21.67;;;3.50;99.90;;;;;;5032786;28;20186;-64
2021/01/03 05:27:20;;;;;;;36.43;21.33;;;3.50;99.90;;;;;;5031686;28;20641;-65
2021/01/03 05:29:46;;;;;;;33.33;19.87;;;3.50;99.90;;;;;;5031221;28;20290;-63
2021/01/03 05:32:13;;;;;;;37.93;20.93;;;3.50;99.90;;;;;;5031290;28;20199;-64
2021/01/03 05:34:43;;;;;;;37.53;20.77;;;3.50;99.90;;;;;;5031635;28;20192;-65
2021/01/03 05:37:16;;;;;;;37.93;20.83;;;3.50;99.90;;;;;;5031514;28;20175;-65
2021/01/03 05:39:43;;;;;;;39.73;20.83;;;3.60;99.90;;;;;;5031304;28;20230;-64
2021/01/03 05:42:21;;;;;;;39.37;20.87;;;3.60;99.90;;;;;;5031288;28;20225;-66
2021/01/03 05:45:01;;;;;;;36.17;19.80;;;3.60;99.90;;;;;;5031470;28;20190;-65
2021/01/03 05:47:29;;;;;;;36.77;20.17;;;3.60;99.90;;;;;;5031484;28;20187;-64
2021/01/03 05:50:12;;;;;;;38.00;20.87;;;3.60;99.90;;;;;;5031183;28;20211;-63
2021/01/03 05:52:48;;;;;;;33.43;19.90;;;3.50;99.90;;;;;;5031312;28;20670;-65
2021/01/03 05:55:19;;;;;;;39.00;19.77;;;3.50;99.90;;;;;;5031606;28;20187;-66
2021/01/03 05:57:45;;;;;;;38.17;21.57;;;3.50;99.90;;;;;;5031482;28;20646;-66
2021/01/03 06:00:32;;;;;;;39.40;21.40;;;3.50;99.90;;;;;;5031336;28;20223;-65
2021/01/03 06:03:23;;;;;;;34.83;19.80;;;3.50;99.90;;;;;;5031436;28;20194;-65
2021/01/03 06:05:52;;;;;;;36.63;20.17;;;3.40;99.90;;;;;;5034278;28;20206;-65
2021/01/03 06:08:25;;;;;;;35.03;19.17;;;3.50;99.90;;;;;;5034912;28;20203;-65
2021/01/03 06:10:51;;;;;;;37.20;20.27;;;3.50;99.90;;;;;;5034949;28;20171;-65
2021/01/03 06:13:19;;;;;;;34.23;20.23;;;3.50;99.90;;;;;;5034748;28;20222;-64
2021/01/03 06:15:51;;;;;;;35.00;19.83;;;3.50;99.90;;;;;;5034934;28;20629;-64
2021/01/03 06:18:45;;;;;;;34.90;20.27;;;3.50;99.90;;;;;;5034665;28;20276;-64
2021/01/03 06:21:26;;;;;;;30.03;18.23;;;3.50;99.90;;;;;;5033423;28;20183;-66
2021/01/03 06:24:16;;;;;;;32.53;18.53;;;3.50;99.90;;;;;;5034904;28;20175;-65
2021/01/03 06:27:05;;;;;;;32.57;18.67;;;3.50;99.90;;;;;;5033418;28;20529;-64
2021/01/03 06:29:39;;;;;;;30.57;18.27;;;3.50;99.90;;;;;;5035046;28;20199;-65
2021/01/03 06:32:08;;;;;;;30.97;18.67;;;3.50;99.90;;;;;;5034251;28;20604;-65
2021/01/03 06:34:50;;;;;;;32.67;17.77;;;3.50;99.90;;;;;;5034910;28;20180;-64
2021/01/03 06:37:33;;;;;;;34.43;19.33;;;3.50;99.90;;;;;;5034797;28;20579;-65
2021/01/03 06:40:11;;;;;;;29.70;18.30;;;3.50;99.90;;;;;;5034266;28;20187;-65
2021/01/03 06:43:14;;;;;;;31.87;18.37;;;3.50;99.90;;;;;;5035054;28;20171;-66
2021/01/03 06:46:00;;;;;;;31.83;19.60;;;3.50;99.90;;;;;;5034402;28;20209;-64
2021/01/03 06:49:00;;;;;;;31.33;17.67;;;3.40;99.90;;;;;;5034334;28;20253;-65
2021/01/03 06:52:10;;;;;;;34.63;18.63;;;3.40;99.90;;;;;;5033889;28;20187;-64
2021/01/03 06:54:54;;;;;;;33.83;18.10;;;3.50;99.90;;;;;;5014613;28;20215;-65
2021/01/03 06:58:01;;;;;;;29.23;17.70;;;3.40;99.90;;;;;;5014483;28;20180;-65
2021/01/03 07:00:41;;;;;;;32.83;18.70;;;3.50;99.90;;;;;;4959107;28;20185;-66
2021/01/03 07:03:34;;;;;;;30.57;16.93;;;3.40;99.90;;;;;;5025399;28;20188;-66
2021/01/03 07:06:00;;;;;;;32.63;18.47;;;3.50;99.90;;;;;;5022389;28;20206;-65
2021/01/03 07:08:30;;;;;;;33.93;18.17;;;3.40;99.90;;;;;;5034083;28;20204;-65
2021/01/03 07:10:55;;;;;;;32.20;18.73;;;3.40;99.90;;;;;;5034274;28;20597;-65
2021/01/03 07:13:30;;;;;;;32.33;18.20;;;3.40;99.90;;;;;;5033772;28;20203;-66
2021/01/03 07:15:58;;;;;;;30.73;18.57;;;3.40;99.90;;;;;;5035009;28;20182;-65
2021/01/03 07:18:27;;;;;;;36.50;19.60;;;3.50;99.90;;;;;;5037638;28;20254;-65
2021/01/03 07:20:58;;;;;;;27.87;17.47;;;3.50;99.90;;;;;;5034081;28;20701;-65
2021/01/03 07:23:35;;;;;;;33.03;19.27;;;3.50;99.90;;;;;;5033369;28;20179;-65
2021/01/03 07:26:22;;;;;;;27.47;17.43;;;3.50;99.90;;;;;;5033543;28;20171;-65
2021/01/03 07:29:22;;;;;;;28.80;17.17;;;3.50;99.90;;;;;;5033766;28;20207;-65
2021/01/03 07:32:02;;;;;;;27.77;16.80;;;3.50;99.90;;;;;;5033805;28;20187;-65
2021/01/03 07:34:30;;;;;;;35.63;17.70;;;3.50;99.90;;;;;;5032116;28;20183;-65
2021/01/03 07:36:58;;;;;;;37.40;20.23;;;3.50;99.90;;;;;;5033446;28;20183;-65
2021/01/03 07:39:29;;;;;;;31.30;17.73;;;3.50;99.90;;;;;;5033487;28;20192;-64
2021/01/03 07:42:12;;;;;;;29.37;17.50;;;3.50;99.90;;;;;;5031496;28;20234;-65
2021/01/03 07:44:38;;;;;;;29.27;17.80;;;3.50;99.90;;;;;;5033735;28;20266;-65
2021/01/03 07:47:04;;;;;;;28.50;16.37;;;3.40;99.90;;;;;;5033440;28;20641;-65
2021/01/03 07:49:46;;;;;;;31.40;17.13;;;3.50;99.90;;;;;;5033536;28;20229;-66
2021/01/03 07:52:18;;;;;;;33.23;17.57;;;3.50;99.90;;;;;;5013008;28;20210;-65
2021/01/03 07:54:56;;;;;;;28.03;16.77;;;3.50;99.90;;;;;;5014720;28;20183;-65
2021/01/03 07:57:27;;;;;;;29.37;16.33;;;3.50;99.90;;;;;;5013940;28;20176;-65
2021/01/03 07:59:57;;;;;;;27.90;17.93;;;3.50;99.90;;;;;;5015131;28;20198;-65
2021/01/03 08:02:30;;;;;;;28.27;16.60;;;3.50;99.90;;;;;;5033045;28;20267;-65
2021/01/03 08:04:59;;;;;;;26.77;16.73;;;3.50;99.90;;;;;;5033223;28;20233;-64
2021/01/03 08:07:25;;;;;;;27.97;16.50;;;3.60;99.90;;;;;;5034341;28;20180;-65
2021/01/03 08:09:51;;;;;;;29.50;18.10;;;3.60;99.90;;;;;;5032317;28;20207;-65
2021/01/03 08:12:32;;;;;;;26.70;16.90;;;3.60;99.90;;;;;;5033011;28;20286;-66
2021/01/03 08:15:04;;;;;;;29.57;17.20;;;3.60;99.90;;;;;;5033613;28;20179;-65
2021/01/03 08:17:37;;;;;;;28.83;16.90;;;3.70;99.90;;;;;;5033682;28;20637;-65
2021/01/03 08:20:06;;;;;;;26.07;15.27;;;3.70;99.90;;;;;;5032807;28;20559;-65
2021/01/03 08:22:32;;;;;;;25.60;15.20;;;3.60;99.90;;;;;;5033806;28;20167;-65
2021/01/03 08:25:00;;;;;;;26.47;15.50;;;3.70;99.90;;;;;;5033174;28;20188;-66
2021/01/03 08:27:38;;;;;;;26.83;15.57;;;3.70;99.90;;;;;;5033140;28;20176;-65
2021/01/03 08:30:10;;;;;;;26.93;17.40;;;3.70;99.90;;;;;;5032621;28;20214;-65
2021/01/03 08:32:38;;;;;;;27.60;15.83;;;3.70;99.90;;;;;;5032734;28;20210;-66
2021/01/03 08:35:11;;;;;;;28.87;17.60;;;3.70;99.90;;;;;;5034429;28;20662;-65
2021/01/03 08:37:41;;;;;;;24.50;16.57;;;3.70;99.90;;;;;;5032844;28;20175;-65
2021/01/03 08:40:33;;;;;;;28.30;16.73;;;3.70;99.90;;;;;;5034446;28;20183;-65
2021/01/03 08:43:14;;;;;;;27.00;16.17;;;3.70;99.90;;;;;;5032616;28;20206;-65
2021/01/03 08:45:43;;;;;;;22.17;15.20;;;3.80;99.90;;;;;;5034283;28;20520;-65
2021/01/03 08:48:18;;;;;;;23.23;14.27;;;3.70;99.90;;;;;;5032572;28;20215;-65
2021/01/03 08:50:44;;;;;;;24.10;14.97;;;3.80;99.90;;;;;;5033162;28;20187;-65
2021/01/03 08:53:16;;;;;;;23.77;14.43;;;3.80;99.90;;;;;;5033017;28;20206;-65
2021/01/03 08:55:42;;;;;;;23.70;15.07;;;3.80;99.90;;;;;;5033347;28;20248;-64
2021/01/03 08:58:20;;;;;;;26.33;14.97;;;3.80;99.90;;;;;;5032415;28;20826;-64
2021/01/03 09:00:50;;;;;;;21.23;13.57;;;3.80;99.90;;;;;;5032268;28;20546;-64
2021/01/03 09:03:19;;;;;;;24.60;14.43;;;3.80;99.90;;;;;;5031923;28;20175;-64
2021/01/03 09:05:47;;;;;;;20.40;12.70;;;3.80;99.90;;;;;;5032471;28;20185;-65
2021/01/03 09:08:23;;;;;;;18.97;12.53;;;3.80;99.90;;;;;;5031894;28;20203;-64
2021/01/03 09:10:50;;;;;;;20.43;12.47;;;3.80;99.90;;;;;;5032079;28;20179;-65
2021/01/03 09:13:25;;;;;;;20.60;11.63;;;3.80;99.90;;;;;;5031681;28;20199;-65
2021/01/03 09:16:22;;;;;;;20.33;11.67;;;3.80;99.90;;;;;;5032242;28;20638;-65
2021/01/03 09:18:53;;;;;;;17.90;11.83;;;3.90;99.90;;;;;;5031730;28;20556;-65
2021/01/03 09:21:19;;;;;;;15.83;10.03;;;3.80;99.90;;;;;;5031609;28;20637;-66
2021/01/03 09:23:49;;;;;;;16.33;10.57;;;3.80;99.90;;;;;;5031630;28;20181;-66
2021/01/03 09:26:15;;;;;;;14.93;10.03;;;3.80;99.90;;;;;;5031330;28;20175;-66
2021/01/03 09:28:42;;;;;;;15.00;9.17;;;3.90;99.90;;;;;;5032079;28;20329;-65
2021/01/03 09:31:21;;;;;;;13.13;9.87;;;3.90;99.90;;;;;;5031555;28;20202;-66
2021/01/03 09:33:52;;;;;;;15.07;10.17;;;4.00;99.90;;;;;;5031673;28;20207;-65
2021/01/03 09:36:23;;;;;;;14.73;9.90;;;4.00;99.90;;;;;;5031616;28;20167;-64
2021/01/03 09:39:07;;;;;;;17.03;10.23;;;4.00;99.90;;;;;;5031857;28;20187;-65
2021/01/03 09:41:54;;;;;;;14.23;9.80;;;4.00;99.90;;;;;;5035826;28;20171;-65
2021/01/03 09:44:43;;;;;;;13.43;9.00;;;4.00;99.90;;;;;;5035686;28;20229;-65
2021/01/03 09:47:14;;;;;;;13.60;8.37;;;4.10;99.90;;;;;;5035817;28;20176;-65
2021/01/03 09:49:41;;;;;;;12.53;9.23;;;4.00;99.90;;;;;;5036359;28;20210;-65
2021/01/03 09:52:16;;;;;;;14.17;8.93;;;4.10;99.90;;;;;;5035243;28;20195;-64
2021/01/03 09:55:04;;;;;;;13.03;8.83;;;4.00;99.90;;;;;;5036671;28;20175;-66
2021/01/03 09:57:38;;;;;;;12.00;8.23;;;4.10;99.90;;;;;;5036979;28;20191;-65
2021/01/03 10:00:14;;;;;;;13.53;8.23;;;4.10;99.90;;;;;;5035543;28;20199;-66
2021/01/03 10:02:40;;;;;;;10.80;8.87;;;4.10;99.90;;;;;;5036695;28;20518;-66
2021/01/03 10:05:24;;;;;;;14.03;9.30;;;4.00;99.90;;;;;;5035918;28;20187;-65
2021/01/03 10:08:03;;;;;;;12.87;9.47;;;4.10;99.90;;;;;;5036609;28;20179;-66
2021/01/03 10:10:55;;;;;;;10.27;7.67;;;4.10;99.90;;;;;;5036053;28;20215;-65
2021/01/03 10:13:22;;;;;;;13.17;8.10;;;4.10;99.90;;;;;;5035917;28;20215;-65
2021/01/03 10:15:51;;;;;;;12.37;8.57;;;4.10;99.90;;;;;;5036129;28;20171;-65
2021/01/03 10:18:38;;;;;;;12.03;8.80;;;4.00;99.90;;;;;;5035793;28;20199;-65
2021/01/03 10:21:34;;;;;;;11.17;8.00;;;4.10;99.90;;;;;;5035582;28;20191;-64
2021/01/03 10:24:15;;;;;;;10.50;8.27;;;4.10;99.90;;;;;;5016533;28;20552;-65
2021/01/03 10:26:42;;;;;;;11.10;8.63;;;4.10;99.90;;;;;;5035762;28;20199;-65
2021/01/03 10:29:07;;;;;;;13.87;8.97;;;4.20;99.90;;;;;;5037704;28;20207;-65
2021/01/03 10:31:42;;;;;;;11.80;8.13;;;4.20;99.90;;;;;;5036645;28;20188;-65
2021/01/03 10:34:09;;;;;;;10.37;7.83;;;4.20;99.90;;;;;;5035540;28;20526;-65
2021/01/03 10:36:35;;;;;;;11.37;8.80;;;4.30;99.90;;;;;;5035995;28;20242;-65
2021/01/03 10:39:02;;;;;;;14.27;8.67;;;4.30;99.90;;;;;;5035880;28;20195;-65
2021/01/03 10:41:30;;;;;;;12.63;9.10;;;4.30;99.90;;;;;;5035197;28;20184;-66
2021/01/03 10:43:55;;;;;;;12.57;8.30;;;4.30;99.90;;;;;;5036145;28;20179;-66
2021/01/03 10:46:21;;;;;;;12.10;9.27;;;4.40;99.90;;;;;;5035745;28;20187;-66
2021/01/03 10:48:46;;;;;;;9.73;7.80;;;4.40;99.90;;;;;;5035484;28;20219;-64
2021/01/03 10:51:12;;;;;;;9.90;8.00;;;4.50;99.90;;;;;;5033047;28;20625;-63
2021/01/03 10:53:37;;;;;;;11.77;8.20;;;4.50;99.90;;;;;;5033826;28;20255;-63
2021/01/03 10:56:03;;;;;;;10.67;7.87;;;4.40;99.90;;;;;;5033976;28;20175;-64
2021/01/03 10:58:29;;;;;;;13.00;9.00;;;4.50;99.90;;;;;;5033606;28;20729;-64
2021/01/03 11:00:55;;;;;;;11.17;8.40;;;4.50;99.90;;;;;;5034067;28;20247;-63
2021/01/03 11:03:20;;;;;;;9.67;7.97;;;4.50;99.90;;;;;;5033404;28;20182;-63
2021/01/03 11:05:46;;;;;;;10.37;7.70;;;4.50;99.90;;;;;;5033772;28;20588;-64
2021/01/03 11:08:11;;;;;;;9.60;7.53;;;4.60;99.90;;;;;;5033256;28;20214;-64
2021/01/03 11:10:37;;;;;;;9.03;6.73;;;4.60;99.90;;;;;;5033523;28;20180;-64
2021/01/03 11:13:02;;;;;;;10.67;7.43;;;4.60;99.90;;;;;;5033510;28;20690;-63
2021/01/03 11:15:28;;;;;;;9.83;7.77;;;4.60;99.90;;;;;;5033704;28;20517;-64
2021/01/03 11:17:54;;;;;;;9.50;7.17;;;4.60;99.90;;;;;;5033523;28;20201;-64
2021/01/03 11:20:20;;;;;;;9.47;7.47;;;4.60;99.90;;;;;;5031488;28;20644;-64
2021/01/03 11:22:46;;;;;;;8.43;6.93;;;4.50;99.90;;;;;;5033540;28;20573;-64
2021/01/03 11:25:12;;;;;;;9.13;7.13;;;4.50;99.90;;;;;;5033158;28;20222;-64
2021/01/03 11:27:38;;;;;;;9.07;7.00;;;4.50;99.90;;;;;;5033390;28;20176;-63
2021/01/03 11:30:05;;;;;;;9.67;7.03;;;4.50;99.90;;;;;;5032542;28;20200;-64
2021/01/03 11:32:31;;;;;;;8.37;7.40;;;4.50;99.90;;;;;;5033147;28;20859;-63
2021/01/03 11:34:57;;;;;;;8.93;6.57;;;4.60;99.90;;;;;;5033249;28;20179;-64
2021/01/03 11:37:26;;;;;;;9.87;7.27;;;4.60;99.90;;;;;;5033028;28;20202;-64
2021/01/03 11:39:52;;;;;;;9.00;6.77;;;4.70;99.90;;;;;;5032844;28;20199;-65
2021/01/03 11:42:30;;;;;;;8.13;6.73;;;4.70;99.90;;;;;;5032469;28;20211;-64
2021/01/03 11:44:56;;;;;;;10.17;7.63;;;4.60;99.90;;;;;;5022780;28;20187;-64
2021/01/03 11:47:23;;;;;;;7.90;6.10;;;4.60;99.90;;;;;;5030942;28;20191;-65
2021/01/03 11:49:49;;;;;;;9.60;7.43;;;4.50;99.90;;;;;;5032773;28;20210;-64
2021/01/03 11:52:14;;;;;;;7.87;6.47;;;4.60;99.90;;;;;;5032300;28;20668;-63
2021/01/03 11:54:40;;;;;;;9.43;5.80;;;4.50;99.90;;;;;;5032797;28;20190;-64
2021/01/03 11:57:06;;;;;;;11.77;7.07;;;4.50;99.90;;;;;;5032745;28;20251;-64
2021/01/03 11:59:32;;;;;;;9.10;7.03;;;4.50;99.90;;;;;;5031038;28;20700;-63
2021/01/03 12:02:03;;;;;;;9.70;6.97;;;4.50;99.90;;;;;;5031777;28;20489;-64
2021/01/03 12:04:29;;;;;;;9.37;6.90;;;4.40;99.90;;;;;;5031550;28;20175;-64
2021/01/03 12:07:00;;;;;;;10.90;7.93;;;4.40;99.90;;;;;;5032250;28;20536;-64
2021/01/03 12:09:29;;;;;;;10.60;6.30;;;4.40;99.90;;;;;;5032281;28;20256;-64
2021/01/03 12:11:59;;;;;;;10.17;7.40;;;4.40;99.90;;;;;;5031653;28;20176;-64
2021/01/03 12:14:25;;;;;;;9.27;6.80;;;4.40;99.90;;;;;;5032290;28;20175;-64
2021/01/03 12:16:58;;;;;;;7.43;6.13;;;4.40;99.90;;;;;;5032145;28;20190;-64
2021/01/03 12:19:24;;;;;;;8.87;6.60;;;4.40;99.90;;;;;;5032198;28;20191;-65
2021/01/03 12:21:50;;;;;;;7.90;6.50;;;4.30;99.90;;;;;;5031469;28;20679;-64
2021/01/03 12:24:16;;;;;;;9.03;6.57;;;4.30;99.90;;;;;;5031796;28;20187;-64
2021/01/03 12:26:42;;;;;;;8.40;6.37;;;4.40;99.90;;;;;;5030865;28;20176;-65
2021/01/03 12:29:10;;;;;;;7.93;6.57;;;4.40;99.90;;;;;;5032048;28;20649;-64
2021/01/03 12:31:42;;;;;;;10.30;6.30;;;4.50;99.90;;;;;;5031723;28;20191;-64
2021/01/03 12:34:08;;;;;;;10.90;6.23;;;4.40;99.90;;;;;;5032158;28;20245;-66
2021/01/03 12:36:34;;;;;;;7.00;5.27;;;4.40;99.90;;;;;;5032301;28;20637;-67
2021/01/03 12:39:00;;;;;;;7.63;6.63;;;4.40;99.90;;;;;;5033211;28;20198;-65
2021/01/03 12:41:27;;;;;;;7.77;6.03;;;4.30;99.90;;;;;;5032241;28;20179;-66
2021/01/03 12:43:53;;;;;;;7.93;6.00;;;4.30;99.90;;;;;;5033096;28;20669;-66
2021/01/03 12:46:30;;;;;;;8.97;6.17;;;4.30;99.90;;;;;;5033483;28;20653;-66
2021/01/03 12:48:57;;;;;;;8.93;5.70;;;4.30;99.90;;;;;;5033379;28;20214;-66
2021/01/03 12:51:23;;;;;;;8.03;6.77;;;4.30;99.90;;;;;;5032947;28;20211;-66
2021/01/03 12:53:49;;;;;;;6.63;5.47;;;4.40;99.90;;;;;;5032851;28;20230;-66
2021/01/03 12:56:16;;;;;;;7.33;5.93;;;4.40;99.90;;;;;;5032363;28;20172;-66
2021/01/03 12:58:41;;;;;;;8.20;6.33;;;4.40;99.90;;;;;;5032293;28;20207;-66